createdAt,value
2019-02-02T00:01:03.010Z,48.13
2019-02-02T00:03:32.407Z,45.40
2019-02-02T00:06:01.715Z,45.70
2019-02-02T00:08:31.146Z,47.00
2019-02-02T00:11:00.478Z,43.77
2019-02-02T00:13:29.799Z,46.13
2019-02-02T00:15:59.260Z,45.70
2019-02-02T00:18:28.767Z,47.47
2019-02-02T00:20:58.088Z,48.70
2019-02-02T00:23:27.411Z,48.57
2019-02-02T00:25:56.735Z,47.47
2019-02-02T00:28:26.066Z,47.23
2019-02-02T00:30:55.383Z,46.83
2019-02-02T00:33:24.692Z,48.00
2019-02-02T00:35:54.029Z,48.13
2019-02-02T00:38:23.339Z,46.00
2019-02-02T00:40:52.655Z,47.83
2019-02-02T00:43:21.967Z,47.67
2019-02-02T00:45:51.300Z,47.70
2019-02-02T00:48:20.596Z,44.90
2019-02-02T00:50:49.931Z,48.73
2019-02-02T00:53:19.415Z,49.80
2019-02-02T00:55:48.804Z,48.57
2019-02-02T00:58:18.132Z,47.20
2019-02-02T01:00:47.459Z,46.47
2019-02-02T01:03:16.775Z,48.87
2019-02-02T01:05:46.106Z,47.50
2019-02-02T01:08:15.420Z,47.77
2019-02-02T01:10:44.734Z,47.40
2019-02-02T01:13:14.223Z,49.63
2019-02-02T01:15:43.544Z,50.93
2019-02-02T01:18:12.855Z,52.13
2019-02-02T01:20:42.228Z,49.87
2019-02-02T01:23:11.592Z,56.00
2019-02-02T01:25:40.933Z,52.80
2019-02-02T01:28:10.260Z,55.20
2019-02-02T01:30:39.649Z,51.93
2019-02-02T01:33:09.463Z,52.23
2019-02-02T01:35:38.787Z,52.83
2019-02-02T01:38:08.121Z,55.57
2019-02-02T01:40:37.452Z,52.87
2019-02-02T01:43:06.826Z,54.47
2019-02-02T01:45:36.156Z,55.97
2019-02-02T01:48:05.463Z,56.13
2019-02-02T01:50:34.786Z,57.40
2019-02-02T01:53:04.094Z,53.63
2019-02-02T01:55:33.415Z,57.37
2019-02-02T01:58:02.726Z,59.00
2019-02-02T02:00:33.493Z,59.63
2019-02-02T02:03:02.807Z,52.70
2019-02-02T02:05:32.219Z,53.40
2019-02-02T02:08:01.554Z,54.50
2019-02-02T02:10:32.118Z,52.37
2019-02-02T02:13:01.422Z,54.40
2019-02-02T02:15:30.743Z,51.80
2019-02-02T02:18:00.058Z,55.63
2019-02-02T02:20:29.388Z,54.10
2019-02-02T02:22:58.700Z,56.10
2019-02-02T02:25:28.055Z,56.43
2019-02-02T02:28:08.154Z,54.07
2019-02-02T02:30:37.505Z,53.60
2019-02-02T02:33:06.826Z,53.97
2019-02-02T02:35:36.142Z,53.67
2019-02-02T02:38:05.466Z,55.40
2019-02-02T02:40:34.784Z,52.07
2019-02-02T02:43:04.272Z,50.17
2019-02-02T02:45:34.546Z,48.37
2019-02-02T02:48:04.615Z,51.70
2019-02-02T02:50:33.914Z,52.77
2019-02-02T02:53:03.248Z,56.10
2019-02-02T02:55:32.550Z,55.33
2019-02-02T02:58:02.147Z,55.13
2019-02-02T03:00:31.454Z,53.77
2019-02-02T03:03:00.782Z,52.87
2019-02-02T03:05:30.087Z,53.73
2019-02-02T03:07:59.415Z,54.33
2019-02-02T03:10:28.888Z,52.90
2019-02-02T03:12:58.208Z,51.47
2019-02-02T03:15:27.530Z,50.53
2019-02-02T03:17:56.851Z,52.87
2019-02-02T03:20:26.160Z,52.63
2019-02-02T03:22:55.495Z,53.03
2019-02-02T03:25:26.016Z,51.80
2019-02-02T03:27:55.401Z,51.40
2019-02-02T03:30:24.712Z,51.80
2019-02-02T03:32:54.028Z,51.90
2019-02-02T03:35:24.482Z,52.87
2019-02-02T03:37:53.962Z,50.43
2019-02-02T03:40:23.753Z,52.90
2019-02-02T03:42:53.063Z,54.93
2019-02-02T03:45:23.972Z,52.20
2019-02-02T03:47:54.854Z,53.07
2019-02-02T03:50:24.157Z,51.80
2019-02-02T03:52:53.646Z,51.47
2019-02-02T03:55:22.966Z,53.07
2019-02-02T03:57:52.297Z,53.53
2019-02-02T04:00:22.759Z,52.63
2019-02-02T04:02:52.076Z,53.57
2019-02-02T04:05:23.923Z,53.13
2019-02-02T04:07:53.420Z,54.00
2019-02-02T04:10:22.820Z,51.40
2019-02-02T04:12:52.178Z,51.53
2019-02-02T04:15:21.670Z,51.27
2019-02-02T04:17:50.971Z,52.80
2019-02-02T04:20:22.230Z,53.07
2019-02-02T04:22:51.806Z,52.83
2019-02-02T04:25:22.466Z,52.90
2019-02-02T04:27:51.835Z,52.40
2019-02-02T04:30:23.392Z,50.27
2019-02-02T04:32:52.765Z,52.77
2019-02-02T04:35:22.425Z,49.57
2019-02-02T04:37:51.747Z,52.30
2019-02-02T04:40:21.129Z,50.13
2019-02-02T04:42:50.429Z,49.57
2019-02-02T04:45:19.925Z,52.60
2019-02-02T04:47:49.232Z,50.27
2019-02-02T04:50:20.303Z,53.70
2019-02-02T04:52:49.758Z,52.27
2019-02-02T04:55:19.963Z,48.77
2019-02-02T04:57:49.254Z,51.73
2019-02-02T05:00:24.597Z,50.87
2019-02-02T05:02:54.615Z,51.43
2019-02-02T05:05:24.107Z,50.40
2019-02-02T05:07:53.417Z,53.47
2019-02-02T05:10:24.081Z,50.77
2019-02-02T05:12:53.562Z,50.67
2019-02-02T05:15:23.090Z,49.73
2019-02-02T05:17:52.466Z,50.30
2019-02-02T05:20:21.891Z,51.47
2019-02-02T05:22:52.182Z,51.90
2019-02-02T05:25:21.499Z,50.70
2019-02-02T05:27:50.805Z,50.63
2019-02-02T05:30:25.861Z,52.67
2019-02-02T05:32:55.181Z,51.37
2019-02-02T05:35:24.574Z,51.80
2019-02-02T05:37:53.950Z,52.60
2019-02-02T05:40:24.309Z,55.10
2019-02-02T05:42:53.614Z,55.67
2019-02-02T05:45:24.066Z,51.90
2019-02-02T05:47:53.379Z,54.87
2019-02-02T05:50:23.864Z,52.30
2019-02-02T05:52:53.214Z,50.20
2019-02-02T05:55:23.375Z,52.50
2019-02-02T05:57:52.698Z,53.80
2019-02-02T06:00:32.908Z,52.47
2019-02-02T06:03:02.222Z,52.33
2019-02-02T06:05:31.534Z,52.60
2019-02-02T06:08:00.860Z,52.10
2019-02-02T06:10:30.238Z,51.93
2019-02-02T06:12:59.546Z,52.77
2019-02-02T06:15:29.195Z,52.20
2019-02-02T06:17:58.676Z,51.43
2019-02-02T06:20:28.013Z,51.93
2019-02-02T06:22:57.306Z,48.67
2019-02-02T06:25:26.631Z,53.33
2019-02-02T06:27:55.937Z,53.97
2019-02-02T06:30:25.913Z,53.43
2019-02-02T06:32:55.208Z,52.07
2019-02-02T06:35:24.526Z,54.40
2019-02-02T06:37:54.799Z,54.47
2019-02-02T06:40:24.178Z,52.83
2019-02-02T06:42:53.513Z,54.27
2019-02-02T06:45:25.870Z,53.27
2019-02-02T06:47:56.715Z,52.17
2019-02-02T06:50:26.179Z,55.87
2019-02-02T06:52:55.650Z,56.60
2019-02-02T06:55:25.072Z,57.00
2019-02-02T06:57:55.553Z,56.37
2019-02-02T07:00:26.956Z,56.60
2019-02-02T07:02:56.419Z,54.77
2019-02-02T07:05:25.923Z,57.77
2019-02-02T07:07:55.226Z,56.57
2019-02-02T07:10:26.802Z,56.90
2019-02-02T07:12:56.175Z,58.70
2019-02-02T07:15:27.638Z,54.37
2019-02-02T07:17:57.134Z,55.13
2019-02-02T07:20:26.441Z,58.37
2019-02-02T07:22:55.790Z,57.50
2019-02-02T07:25:25.097Z,56.33
2019-02-02T07:27:54.420Z,54.30
2019-02-02T07:30:28.767Z,57.13
2019-02-02T07:32:55.765Z,54.97
2019-02-02T07:35:25.073Z,55.00
2019-02-02T07:37:54.399Z,55.67
2019-02-02T07:40:23.725Z,53.23
2019-02-02T07:42:53.043Z,54.17
2019-02-02T07:45:30.470Z,53.97
2019-02-02T07:47:59.850Z,57.53
2019-02-02T07:50:29.257Z,55.97
2019-02-02T07:52:58.565Z,55.50
2019-02-02T07:55:27.874Z,55.63
2019-02-02T07:57:57.205Z,57.67
2019-02-02T08:00:40.301Z,55.77
2019-02-02T08:03:02.974Z,53.87
2019-02-02T08:05:32.287Z,55.03
2019-02-02T08:08:01.601Z,58.40
2019-02-02T08:10:30.976Z,56.50
2019-02-02T08:13:00.362Z,53.23
2019-02-02T08:15:31.907Z,53.00
2019-02-02T08:18:01.235Z,52.10
2019-02-02T08:20:30.817Z,54.50
2019-02-02T08:23:00.149Z,53.33
2019-02-02T08:25:29.474Z,53.50
2019-02-02T08:27:58.789Z,53.17
2019-02-02T08:30:31.313Z,52.23
2019-02-02T08:33:00.622Z,54.13
2019-02-02T08:35:29.999Z,53.30
2019-02-02T08:37:59.391Z,56.20
2019-02-02T08:40:28.710Z,56.47
2019-02-02T08:42:58.022Z,54.60
2019-02-02T08:45:27.330Z,55.00
2019-02-02T08:47:56.650Z,53.63
2019-02-02T08:50:28.722Z,54.43
2019-02-02T08:52:58.062Z,55.43
2019-02-02T08:55:27.600Z,53.80
2019-02-02T08:57:56.957Z,54.87
2019-02-02T09:00:26.422Z,53.47
2019-02-02T09:02:55.735Z,54.10
2019-02-02T09:05:25.049Z,51.03
2019-02-02T09:07:54.431Z,53.90
2019-02-02T09:10:25.986Z,55.17
2019-02-02T09:12:55.813Z,56.83
2019-02-02T09:15:25.302Z,52.13
2019-02-02T09:17:54.606Z,54.00
2019-02-02T09:20:23.923Z,53.20
2019-02-02T09:23:03.899Z,53.00
2019-02-02T09:25:24.235Z,53.73
2019-02-02T09:27:53.527Z,51.90
2019-02-02T09:30:34.559Z,56.47
2019-02-02T09:33:04.334Z,53.60
2019-02-02T09:35:33.650Z,52.73
2019-02-02T09:38:03.122Z,55.03
2019-02-02T09:40:32.433Z,53.30
2019-02-02T09:43:01.739Z,54.13
2019-02-02T09:45:31.048Z,53.77
2019-02-02T09:48:00.345Z,52.93
2019-02-02T09:50:30.637Z,53.43
2019-02-02T09:52:59.922Z,54.10
2019-02-02T09:55:29.230Z,51.33
2019-02-02T09:58:01.670Z,55.33
2019-02-02T10:00:32.816Z,54.40
2019-02-02T10:03:02.129Z,55.90
2019-02-02T10:05:32.834Z,56.90
2019-02-02T10:08:02.141Z,54.30
2019-02-02T10:10:33.586Z,56.90
2019-02-02T10:13:02.959Z,58.00
2019-02-02T10:15:32.309Z,58.57
2019-02-02T10:18:01.672Z,56.13
2019-02-02T10:20:31.773Z,56.30
2019-02-02T10:23:01.909Z,55.13
2019-02-02T10:25:31.916Z,55.93
2019-02-02T10:28:01.366Z,55.43
2019-02-02T10:30:32.719Z,55.77
2019-02-02T10:33:03.013Z,56.90
2019-02-02T10:35:32.390Z,56.83
2019-02-02T10:38:01.793Z,58.43
2019-02-02T10:40:31.098Z,54.47
2019-02-02T10:43:00.401Z,56.37
2019-02-02T10:45:29.794Z,58.80
2019-02-02T10:47:59.286Z,83.93
2019-02-02T10:50:28.650Z,60.77
2019-02-02T10:52:58.025Z,59.07
2019-02-02T10:55:27.341Z,58.10
2019-02-02T10:57:56.639Z,61.10
2019-02-02T11:00:31.643Z,59.50
2019-02-02T11:03:00.938Z,59.23
2019-02-02T11:05:30.325Z,56.03
2019-02-02T11:07:59.814Z,60.37
2019-02-02T11:10:31.050Z,62.73
2019-02-02T11:13:00.625Z,62.57
2019-02-02T11:15:30.172Z,59.57
2019-02-02T11:17:59.618Z,59.07
2019-02-02T11:20:31.689Z,58.43
2019-02-02T11:23:01.222Z,61.13
2019-02-02T11:25:30.754Z,63.40
2019-02-02T11:28:00.180Z,60.10
2019-02-02T11:30:29.943Z,60.50
2019-02-02T11:32:59.257Z,62.20
2019-02-02T11:35:28.568Z,61.67
2019-02-02T11:37:57.943Z,59.67
2019-02-02T11:40:32.801Z,62.00
2019-02-02T11:43:02.354Z,60.60
2019-02-02T11:45:31.647Z,58.63
2019-02-02T11:48:00.962Z,58.17
2019-02-02T11:50:30.352Z,57.50
2019-02-02T11:52:59.659Z,58.00
2019-02-02T11:55:29.322Z,58.17
2019-02-02T11:57:58.634Z,58.30
2019-02-02T12:00:39.387Z,56.40
2019-02-02T12:03:08.757Z,60.47
2019-02-02T12:05:39.060Z,59.60
2019-02-02T12:08:08.767Z,59.17
2019-02-02T12:10:38.062Z,67.33
2019-02-02T12:13:07.377Z,64.77
2019-02-02T12:15:37.745Z,62.53
2019-02-02T12:18:07.066Z,61.83
2019-02-02T12:20:36.536Z,59.03
2019-02-02T12:23:05.918Z,58.93
2019-02-02T12:25:35.306Z,59.73
2019-02-02T12:28:05.346Z,61.83
2019-02-02T12:30:35.438Z,61.13
2019-02-02T12:33:05.461Z,61.33
2019-02-02T12:35:34.829Z,60.60
2019-02-02T12:38:04.973Z,59.73
2019-02-02T12:40:34.440Z,57.53
2019-02-02T12:43:04.028Z,60.07
2019-02-02T12:45:36.389Z,75.60
2019-02-02T12:48:06.354Z,60.70
2019-02-02T12:50:35.652Z,60.90
2019-02-02T12:53:05.257Z,58.60
2019-02-02T12:55:34.574Z,62.23
2019-02-02T12:58:05.233Z,59.87
2019-02-02T13:00:34.534Z,60.50
2019-02-02T13:03:04.016Z,61.53
2019-02-02T13:05:33.307Z,61.27
2019-02-02T13:08:05.184Z,61.80
2019-02-02T13:10:33.785Z,61.43
2019-02-02T13:13:03.173Z,62.77
2019-02-02T13:15:32.466Z,63.13
2019-02-02T13:18:01.798Z,64.57
2019-02-02T13:20:31.130Z,62.43
2019-02-02T13:23:00.458Z,59.93
2019-02-02T13:25:29.820Z,63.97
2019-02-02T13:27:59.134Z,62.17
2019-02-02T13:30:31.138Z,61.70
2019-02-02T13:33:00.456Z,63.10
2019-02-02T13:35:32.310Z,60.57
2019-02-02T13:38:01.627Z,63.17
2019-02-02T13:40:31.012Z,60.00
2019-02-02T13:43:00.326Z,61.43
2019-02-02T13:45:29.625Z,64.23
2019-02-02T13:47:58.998Z,61.87
2019-02-02T13:50:28.306Z,63.27
2019-02-02T13:52:57.691Z,62.60
2019-02-02T13:55:26.999Z,59.00
2019-02-02T13:57:56.298Z,62.37
2019-02-02T14:00:28.146Z,61.80
2019-02-02T14:03:02.995Z,61.27
2019-02-02T14:05:28.737Z,62.93
2019-02-02T14:08:00.017Z,59.23
2019-02-02T14:10:31.295Z,61.23
2019-02-02T14:13:00.591Z,60.90
2019-02-02T14:15:29.902Z,61.30
2019-02-02T14:17:59.198Z,59.03
2019-02-02T14:20:28.509Z,61.97
2019-02-02T14:22:57.802Z,61.57
2019-02-02T14:25:27.110Z,59.53
2019-02-02T14:27:56.410Z,59.40
2019-02-02T14:30:26.398Z,61.43
2019-02-02T14:32:55.702Z,61.97
2019-02-02T14:35:27.342Z,60.23
2019-02-02T14:37:56.709Z,63.57
2019-02-02T14:40:26.026Z,60.93
2019-02-02T14:42:55.335Z,60.97
2019-02-02T14:45:27.605Z,60.63
2019-02-02T14:47:57.029Z,60.87
2019-02-02T14:50:26.339Z,59.77
2019-02-02T14:52:55.772Z,61.73
2019-02-02T14:55:27.130Z,59.30
2019-02-02T14:57:56.675Z,60.70
2019-02-02T15:00:28.018Z,61.53
2019-02-02T15:02:57.433Z,62.27
2019-02-02T15:05:27.014Z,62.10
2019-02-02T15:07:56.382Z,62.43
2019-02-02T15:10:25.690Z,64.77
2019-02-02T15:12:54.997Z,64.33
2019-02-02T15:15:24.541Z,63.37
2019-02-02T15:17:53.836Z,61.43
2019-02-02T15:20:31.789Z,62.17
2019-02-02T15:23:01.187Z,62.23
2019-02-02T15:25:30.497Z,62.47
2019-02-02T15:27:59.789Z,63.80
2019-02-02T15:30:31.606Z,64.27
2019-02-02T15:33:00.908Z,62.90
2019-02-02T15:35:30.418Z,66.10
2019-02-02T15:37:59.701Z,63.17
2019-02-02T15:40:31.461Z,64.53
2019-02-02T15:43:00.177Z,63.97
2019-02-02T15:45:31.326Z,62.63
2019-02-02T15:48:00.690Z,62.63
2019-02-02T15:50:30.002Z,65.47
2019-02-02T15:52:59.304Z,65.30
2019-02-02T15:55:28.610Z,64.60
2019-02-02T15:57:57.918Z,64.40
2019-02-02T16:00:29.377Z,65.57
2019-02-02T16:02:58.750Z,65.20
2019-02-02T16:05:28.722Z,62.07
2019-02-02T16:08:00.071Z,63.23
2019-02-02T16:10:31.898Z,64.50
2019-02-02T16:13:01.727Z,63.60
2019-02-02T16:15:34.052Z,65.20
2019-02-02T16:18:02.036Z,65.00
2019-02-02T16:20:34.256Z,64.03
2019-02-02T16:23:03.735Z,64.07
2019-02-02T16:25:33.031Z,63.93
2019-02-02T16:28:02.353Z,67.87
2019-02-02T16:30:32.122Z,66.80
2019-02-02T16:33:01.486Z,65.10
2019-02-02T16:35:30.826Z,62.53
2019-02-02T16:38:00.198Z,67.73
2019-02-02T16:40:32.106Z,66.30
2019-02-02T16:43:01.434Z,66.33
2019-02-02T16:45:32.839Z,62.93
2019-02-02T16:48:02.148Z,64.17
2019-02-02T16:50:31.446Z,66.67
2019-02-02T16:53:00.754Z,68.87
2019-02-02T16:55:30.237Z,65.47
2019-02-02T16:57:59.563Z,65.43
2019-02-02T17:00:31.065Z,64.70
2019-02-02T17:03:00.845Z,65.87
2019-02-02T17:05:30.535Z,64.00
2019-02-02T17:07:59.970Z,64.93
2019-02-02T17:10:34.059Z,65.07
2019-02-02T17:13:03.806Z,65.07
2019-02-02T17:15:33.099Z,63.63
2019-02-02T17:18:02.489Z,66.40
2019-02-02T17:20:34.226Z,68.17
2019-02-02T17:23:03.611Z,66.60
2019-02-02T17:25:32.901Z,66.23
2019-02-02T17:28:02.206Z,63.13
2019-02-02T17:30:31.573Z,64.67
2019-02-02T17:33:03.623Z,63.90
2019-02-02T17:35:33.049Z,63.37
2019-02-02T17:38:02.426Z,64.00
2019-02-02T17:40:31.730Z,62.37
2019-02-02T17:43:01.034Z,63.60
2019-02-02T17:45:30.527Z,64.67
2019-02-02T17:47:59.851Z,62.90
2019-02-02T17:50:30.285Z,65.33
2019-02-02T17:52:59.602Z,63.57
2019-02-02T17:55:28.907Z,63.50
2019-02-02T17:57:58.218Z,65.03
2019-02-02T18:00:31.866Z,65.50
2019-02-02T18:03:01.190Z,65.20
2019-02-02T18:05:30.499Z,65.20
2019-02-02T18:07:59.817Z,64.80
2019-02-02T18:10:29.110Z,64.33
2019-02-02T18:12:58.481Z,62.77
2019-02-02T18:15:27.786Z,61.77
2019-02-02T18:17:57.110Z,63.47
2019-02-02T18:20:26.427Z,62.50
2019-02-02T18:22:55.742Z,65.03
2019-02-02T18:25:25.050Z,64.43
2019-02-02T18:27:54.350Z,64.27
2019-02-02T18:30:27.822Z,62.97
2019-02-02T18:32:57.394Z,63.63
2019-02-02T18:35:26.775Z,64.03
2019-02-02T18:37:56.086Z,64.43
2019-02-02T18:40:26.035Z,61.30
2019-02-02T18:42:55.334Z,63.70
2019-02-02T18:45:27.271Z,62.20
2019-02-02T18:47:56.578Z,62.73
2019-02-02T18:50:27.022Z,63.27
2019-02-02T18:53:00.147Z,61.90
2019-02-02T18:55:38.108Z,62.70
2019-02-02T18:58:07.498Z,60.73
2019-02-02T19:00:36.823Z,64.20
2019-02-02T19:03:06.658Z,61.00
2019-02-02T19:05:35.970Z,64.67
2019-02-02T19:08:05.522Z,62.53
2019-02-02T19:10:37.773Z,62.67
2019-02-02T19:13:07.254Z,62.97
2019-02-02T19:15:37.722Z,65.33
2019-02-02T19:18:07.815Z,62.17
2019-02-02T19:20:37.174Z,63.57
2019-02-02T19:23:06.663Z,62.67
2019-02-02T19:25:35.974Z,63.20
2019-02-02T19:28:06.325Z,62.63
2019-02-02T19:30:36.260Z,63.57
2019-02-02T19:33:05.906Z,62.53
2019-02-02T19:35:35.213Z,63.57
2019-02-02T19:38:04.847Z,63.47
2019-02-02T19:40:34.156Z,60.83
2019-02-02T19:43:03.450Z,62.73
2019-02-02T19:45:32.802Z,63.77
2019-02-02T19:48:02.102Z,63.87
2019-02-02T19:50:31.418Z,61.63
2019-02-02T19:53:00.833Z,61.17
2019-02-02T19:55:30.310Z,61.50
2019-02-02T19:57:59.700Z,59.43
2019-02-02T20:00:34.440Z,60.23
2019-02-02T20:03:04.443Z,59.77
2019-02-02T20:05:33.759Z,61.53
2019-02-02T20:08:03.142Z,61.47
2019-02-02T20:10:32.461Z,62.27
2019-02-02T20:13:01.751Z,59.83
2019-02-02T20:15:31.062Z,60.57
2019-02-02T20:18:09.435Z,59.87
2019-02-02T20:20:32.433Z,62.30
2019-02-02T20:23:01.730Z,59.80
2019-02-02T20:25:31.049Z,60.30
2019-02-02T20:28:00.354Z,59.97
2019-02-02T20:30:31.609Z,59.50
2019-02-02T20:33:00.997Z,56.80
2019-02-02T20:35:40.201Z,59.17
2019-02-02T20:38:01.363Z,60.67
2019-02-02T20:40:30.691Z,58.33
2019-02-02T20:42:59.984Z,60.70
2019-02-02T20:45:34.741Z,58.50
2019-02-02T20:48:04.799Z,59.83
2019-02-02T20:50:34.128Z,58.87
2019-02-02T20:53:03.746Z,59.90
2019-02-02T20:55:39.471Z,59.33
2019-02-02T20:58:08.771Z,58.00
2019-02-02T21:00:38.240Z,56.50
2019-02-02T21:03:07.591Z,58.30
2019-02-02T21:05:36.902Z,57.00
2019-02-02T21:08:06.687Z,57.60
2019-02-02T21:10:35.990Z,58.50
2019-02-02T21:13:05.641Z,59.50
2019-02-02T21:15:34.934Z,60.40
2019-02-02T21:18:04.615Z,57.77
2019-02-02T21:20:34.377Z,58.97
2019-02-02T21:23:03.762Z,59.30
2019-02-02T21:25:34.073Z,59.73
2019-02-02T21:28:05.255Z,58.17
2019-02-02T21:30:35.590Z,57.10
2019-02-02T21:33:05.663Z,56.57
2019-02-02T21:35:34.958Z,57.50
2019-02-02T21:38:04.814Z,58.93
2019-02-02T21:40:35.563Z,58.33
2019-02-02T21:43:06.879Z,56.03
2019-02-02T21:45:36.577Z,57.03
2019-02-02T21:48:06.126Z,57.53
2019-02-02T21:50:35.427Z,58.23
2019-02-02T21:53:05.196Z,58.77
2019-02-02T21:55:34.566Z,59.17
2019-02-02T21:58:04.553Z,56.07
2019-02-02T22:00:38.917Z,57.57
2019-02-02T22:03:08.309Z,58.13
2019-02-02T22:05:37.850Z,57.87
2019-02-02T22:08:07.797Z,57.60
2019-02-02T22:10:37.274Z,55.07
2019-02-02T22:13:07.022Z,59.53
2019-02-02T22:15:37.207Z,58.63
2019-02-02T22:18:06.523Z,60.03
2019-02-02T22:20:35.813Z,58.30
2019-02-02T22:23:05.198Z,59.53
2019-02-02T22:25:35.476Z,56.83
2019-02-02T22:28:05.219Z,61.57
2019-02-02T22:30:36.573Z,57.10
2019-02-02T22:33:06.234Z,59.93
2019-02-02T22:35:35.531Z,60.37
2019-02-02T22:38:05.182Z,57.33
2019-02-02T22:40:34.483Z,57.33
2019-02-02T22:43:04.163Z,57.87
2019-02-02T22:45:33.473Z,57.60
2019-02-02T22:48:02.782Z,57.43
2019-02-02T22:50:32.455Z,58.20
2019-02-02T22:53:01.771Z,57.40
2019-02-02T22:55:31.065Z,56.23
2019-02-02T22:58:00.461Z,52.93
2019-02-02T23:00:43.610Z,56.20
2019-02-02T23:03:18.546Z,53.83
2019-02-02T23:05:56.942Z,54.23
2019-02-02T23:08:41.059Z,52.67
2019-02-02T23:11:13.444Z,52.77
2019-02-02T23:14:05.294Z,52.67
2019-02-02T23:16:34.890Z,53.77
2019-02-02T23:19:05.395Z,51.47
2019-02-02T23:21:34.693Z,51.83
2019-02-02T23:24:04.175Z,51.47
2019-02-02T23:26:33.470Z,51.57
2019-02-02T23:29:02.791Z,51.27
2019-02-02T23:31:32.283Z,52.47
2019-02-02T23:34:01.661Z,50.10
2019-02-02T23:36:31.031Z,55.90
2019-02-02T23:39:00.358Z,54.53
2019-02-02T23:41:29.660Z,53.00
2019-02-02T23:43:59.262Z,51.73
2019-02-02T23:46:28.558Z,49.40
2019-02-02T23:48:57.866Z,49.80
2019-02-02T23:51:27.165Z,50.93
2019-02-02T23:53:56.478Z,49.23
2019-02-02T23:56:26.245Z,51.43
2019-02-02T23:58:55.559Z,49.63
